Forside
METAR-TAF:

METAR-TAF

Lufthavne :

RAAF Base Amberley

Ipswich, Australien

Breddekreds: 27-38-26S, længdekreds: 152-42-43E, højde: 28 m

Aktuelle vejr

Denne rapport blev lavet for 41 minutter siden, kl. 00:30 UTC
Vind 17 kt fra syd
Temperatur 26°C
Fugtighed 54%
Tryk 1019 hPa
Sigt 10 km eller mere
Overskyet i en højde af 4300 ft
Overskyet i en højde af 5200 ft

METAR: YAMB 240030Z AUTO 17017KT 9999 // OVC043 OVC052 26/16 Q1019

Tid: 11:11 (01:11 UTC)

Vejrudsigter

Denne rapport blev lavet for 1 time og 48 minutter siden, kl. 23:23 UTC
Foreløbig gælder fra 24 på 00 UTC til 24 på 18 UTC
Vind 17 kt fra sydsydøst med vindstød på up til 27 kt
Sigt 10 km eller mere
Nogle få skyer i en højde af 5000 ft
Fra 24 på 0900 UTC
Vind 10 kt fra sydsydøst
Sigt 10 km eller mere
Spredte skyer i en højde af 4000 ft

TAF: YAMB 232323Z 2400/2418 15017G27KT 9999 FEW050 FM240900 16010KT 9999 SCT040

Vejrobservationer og prognoser fra mere end 4000 lufthavne (METAR og TAF).

De gule og røde prikker repræsenterer de meteorologiske stationer.

Flyt musen over at se navnet på stationen.

Så klik over at se vejr observationer og prognoser.

At skifte det kort: Klik på de grønne knapper med et sort kors for at zoome ind; på den grønne knap med en bindestreg for at zoome ud; eller på de grønne pile for tilstødende kort.


METAR-TAF: